One Hundred Fifty Mile House, Canada
Current Conditions -  °F | °C
As of 7:00 AM on Friday 31 Oct 2014 (Local Time) from CYWL Reporting Station
Scattered Clouds Scattered Clouds  
Wind Chill: 37°   Ceiling: Unl
Heat Index: 37°   Visibility: 15mi
Dew Point: 37°   Wind: 3mph
Humidity: 100%   Direction: 260°W
Pressure: 29.65"   Gusts: NA
Location:  52.12°N, 121.93°W
Report Text: CYWL 311400Z 26003KT 160V310 15SM FEW040 SCT090 SCT230 03/03 A2965 RMK SC1AC3CI1 SC TR SLP060
Loading
Personal Weather Stations






























Interactive Weather Map
Tropical Storm Tracking
New forecast layout! Learn more

10-Day Weather Forecast

Advertisements
Track Severe Weather on mobile